Time;durP1;ratioP1;P1;durP2;ratioP2;P2;SDS_P1;SDS_P2;PMS_P1;PMS_P2;Temp;Humidity;BMP_temperature;BMP_pressure;BME280_temperature;BME280_humidity;BME280_pressure;Samples;Min_cycle;Max_cycle;Signal;HPM_P1;HPM_P2
2022/12/18 00:02:12;;;;;;;0.30;0.30;;;-7.60;99.90;;;;;;5074849;28;20445;-82
2022/12/18 00:04:39;;;;;;;0.30;0.30;;;-7.60;99.90;;;;;;5074546;28;20472;-82
2022/12/18 00:07:06;;;;;;;0.30;0.30;;;-7.60;99.90;;;;;;5074704;28;20448;-82
2022/12/18 00:09:33;;;;;;;0.30;0.30;;;-7.50;99.90;;;;;;5074602;28;20957;-81
2022/12/18 00:12:00;;;;;;;0.40;0.40;;;-7.50;99.90;;;;;;5074290;28;20544;-82
2022/12/18 00:14:26;;;;;;;0.30;0.30;;;-7.50;99.90;;;;;;5074517;28;20469;-82
2022/12/18 00:16:54;;;;;;;0.30;0.30;;;-7.50;99.90;;;;;;5074528;28;20460;-82
2022/12/18 00:19:21;;;;;;;0.30;0.30;;;-7.60;99.90;;;;;;5074068;28;20477;-81
2022/12/18 00:21:48;;;;;;;0.60;0.60;;;-7.50;99.90;;;;;;5074403;28;20787;-82
2022/12/18 00:24:15;;;;;;;0.53;0.53;;;-7.50;99.90;;;;;;5073845;28;21012;-82
2022/12/18 00:26:41;;;;;;;0.30;0.30;;;-7.50;99.90;;;;;;5074330;28;20469;-82
2022/12/18 00:29:13;;;;;;;0.80;0.80;;;-7.60;99.90;;;;;;5074308;28;20460;-82
2022/12/18 00:31:41;;;;;;;0.53;0.53;;;-7.60;99.90;;;;;;5074246;28;20437;-82
2022/12/18 00:34:11;;;;;;;0.40;0.40;;;-7.70;99.90;;;;;;5074148;28;20829;-81
2022/12/18 00:36:39;;;;;;;0.30;0.30;;;-7.80;99.90;;;;;;5073804;28;20424;-82
2022/12/18 00:39:06;;;;;;;1.03;1.03;;;-7.80;99.90;;;;;;5074026;28;20472;-81
2022/12/18 00:44:16;;;;;;;0.30;0.30;;;-7.80;99.90;;;;;;5040428;28;20428;-81
2022/12/18 00:46:44;;;;;;;0.30;0.30;;;-7.80;99.90;;;;;;5073958;28;20489;-81
2022/12/18 00:49:13;;;;;;;0.93;0.93;;;-7.80;99.90;;;;;;5073916;28;20457;-82
2022/12/18 00:51:39;;;;;;;1.27;1.20;;;-7.70;99.90;;;;;;5073828;28;20445;-82
2022/12/18 00:54:06;;;;;;;1.00;0.97;;;-7.70;99.90;;;;;;5073763;28;20465;-82
2022/12/18 00:56:33;;;;;;;2.50;1.70;;;-7.60;99.90;;;;;;5073822;28;20448;-82
2022/12/18 00:59:00;;;;;;;2.40;0.80;;;-7.50;99.90;;;;;;5073694;28;20489;-81
2022/12/18 01:01:26;;;;;;;0.60;0.60;;;-7.50;99.90;;;;;;5073686;28;20452;-81
2022/12/18 01:03:53;;;;;;;0.30;0.30;;;-7.50;99.90;;;;;;5073657;28;20872;-82
2022/12/18 01:06:21;;;;;;;0.30;0.30;;;-7.60;99.90;;;;;;5073367;28;20452;-82
2022/12/18 01:08:48;;;;;;;0.30;0.30;;;-7.60;99.90;;;;;;5073847;28;20441;-82
2022/12/18 01:11:21;;;;;;;0.30;0.30;;;-7.60;99.90;;;;;;5073118;28;20452;-82
2022/12/18 01:13:48;;;;;;;0.47;0.47;;;-7.70;99.90;;;;;;5073770;28;20477;-82
2022/12/18 01:16:17;;;;;;;0.30;0.30;;;-7.70;99.90;;;;;;5073549;28;20812;-81
2022/12/18 01:18:45;;;;;;;0.87;0.87;;;-7.70;99.90;;;;;;5073159;28;21000;-82
2022/12/18 01:21:14;;;;;;;2.50;1.40;;;-7.70;99.90;;;;;;5073476;28;20445;-82
2022/12/18 01:23:42;;;;;;;0.30;0.30;;;-7.60;99.90;;;;;;5073113;28;20855;-82
2022/12/18 01:26:11;;;;;;;0.30;0.30;;;-7.60;99.90;;;;;;5073382;28;20931;-82
2022/12/18 01:28:37;;;;;;;0.30;0.30;;;-7.50;99.90;;;;;;5073051;28;20456;-81
2022/12/18 01:31:13;;;;;;;0.70;0.70;;;-7.50;99.90;;;;;;5073074;28;20830;-82
2022/12/18 01:33:39;;;;;;;1.13;1.13;;;-7.40;99.90;;;;;;5072993;28;20455;-82
2022/12/18 01:36:07;;;;;;;0.70;0.70;;;-7.40;99.90;;;;;;5073357;28;20449;-82
2022/12/18 01:38:33;;;;;;;0.37;0.37;;;-7.40;99.90;;;;;;5073268;28;20445;-82
2022/12/18 01:41:02;;;;;;;0.30;0.30;;;-7.40;99.90;;;;;;5072984;28;20449;-82
2022/12/18 01:43:47;;;;;;;0.77;0.77;;;-7.40;99.90;;;;;;5073214;28;20461;-81
2022/12/18 01:46:14;;;;;;;0.40;0.40;;;-7.40;99.90;;;;;;5073283;28;20429;-81
2022/12/18 01:48:42;;;;;;;0.30;0.30;;;-7.30;99.90;;;;;;5072886;28;20819;-81
2022/12/18 01:51:11;;;;;;;0.30;0.30;;;-7.20;99.90;;;;;;5073170;28;20455;-82
2022/12/18 01:53:40;;;;;;;1.13;1.13;;;-7.20;99.90;;;;;;5072788;28;20996;-81
2022/12/18 01:56:13;;;;;;;0.30;0.30;;;-7.10;99.90;;;;;;5072826;28;20827;-82
2022/12/18 01:58:47;;;;;;;0.37;0.37;;;-7.10;99.90;;;;;;5072947;28;20448;-82
2022/12/18 02:01:14;;;;;;;0.30;0.30;;;-7.00;99.90;;;;;;5073117;28;20431;-82
2022/12/18 02:03:42;;;;;;;0.33;0.33;;;-7.00;99.90;;;;;;5073000;28;20465;-82
2022/12/18 02:06:15;;;;;;;2.00;1.03;;;-7.00;99.90;;;;;;5073032;28;20859;-81
2022/12/18 02:08:59;;;;;;;0.40;0.40;;;-7.00;99.90;;;;;;5073063;28;20441;-82
2022/12/18 02:11:40;;;;;;;0.30;0.30;;;-7.00;99.90;;;;;;5073028;28;20420;-82
2022/12/18 02:14:18;;;;;;;0.90;0.90;;;-7.00;99.90;;;;;;5072613;28;20972;-82
2022/12/18 02:16:52;;;;;;;0.50;0.50;;;-6.90;99.90;;;;;;5072698;28;20491;-82
2022/12/18 02:19:43;;;;;;;0.53;0.53;;;-6.90;99.90;;;;;;5072872;28;20473;-82
2022/12/18 02:22:26;;;;;;;0.67;0.67;;;-7.00;99.90;;;;;;5072506;28;20477;-82
2022/12/18 02:25:05;;;;;;;0.30;0.30;;;-7.10;99.90;;;;;;5076459;28;20790;-82
2022/12/18 02:27:36;;;;;;;1.07;0.90;;;-7.20;99.90;;;;;;5076683;28;20433;-82
2022/12/18 02:30:05;;;;;;;3.97;3.30;;;-7.20;99.90;;;;;;5076614;28;20433;-82
2022/12/18 02:32:36;;;;;;;0.50;0.50;;;-7.20;99.90;;;;;;5076139;28;20948;-82
2022/12/18 02:35:07;;;;;;;0.50;0.50;;;-7.30;99.90;;;;;;5076985;28;20792;-82
2022/12/18 02:37:35;;;;;;;1.30;1.30;;;-7.60;99.90;;;;;;5076794;28;20425;-82
2022/12/18 02:40:05;;;;;;;0.30;0.30;;;-7.60;99.90;;;;;;5076024;28;20850;-82
2022/12/18 02:42:33;;;;;;;0.30;0.30;;;-7.60;99.90;;;;;;5076588;28;20449;-82
2022/12/18 02:45:00;;;;;;;1.80;1.70;;;-7.70;99.90;;;;;;5076329;28;20452;-82
2022/12/18 02:47:31;;;;;;;0.70;0.70;;;-7.70;99.90;;;;;;5076350;28;20445;-83
2022/12/18 02:50:06;;;;;;;0.30;0.30;;;-7.80;99.90;;;;;;5076298;28;20418;-82
2022/12/18 02:52:40;;;;;;;0.77;0.77;;;-7.90;99.90;;;;;;5076133;28;20437;-83
2022/12/18 02:55:18;;;;;;;1.37;1.37;;;-8.00;99.90;;;;;;5076170;28;20449;-82
2022/12/18 02:57:54;;;;;;;0.30;0.30;;;-8.00;99.90;;;;;;5076396;28;20433;-82
2022/12/18 03:00:24;;;;;;;1.17;1.10;;;-8.00;99.90;;;;;;5075657;28;20469;-82
2022/12/18 03:02:56;;;;;;;0.70;0.70;;;-8.00;99.90;;;;;;5075904;28;20469;-82
2022/12/18 03:05:28;;;;;;;0.40;0.40;;;-8.00;99.90;;;;;;5075689;28;20439;-82
2022/12/18 03:07:59;;;;;;;0.40;0.40;;;-7.90;99.90;;;;;;5075931;28;20430;-82
2022/12/18 03:10:29;;;;;;;0.70;0.70;;;-8.00;99.90;;;;;;5075918;28;20433;-82
2022/12/18 03:13:03;;;;;;;0.40;0.40;;;-8.00;99.90;;;;;;5075746;28;20984;-82
2022/12/18 03:15:35;;;;;;;5.23;1.90;;;-8.00;99.90;;;;;;5075764;28;20429;-81
2022/12/18 03:18:05;;;;;;;0.30;0.30;;;-8.00;99.90;;;;;;5075446;28;20429;-81
2022/12/18 03:20:35;;;;;;;0.30;0.30;;;-8.00;99.90;;;;;;5075636;28;20472;-82
2022/12/18 03:23:08;;;;;;;0.30;0.30;;;-8.00;99.90;;;;;;5075295;28;20489;-82
2022/12/18 03:25:38;;;;;;;0.30;0.30;;;-7.90;99.90;;;;;;5075628;28;20434;-82
2022/12/18 03:28:09;;;;;;;0.40;0.40;;;-8.00;99.90;;;;;;5075635;28;20433;-82
2022/12/18 03:30:41;;;;;;;0.30;0.30;;;-8.00;99.90;;;;;;5075224;28;20909;-82
2022/12/18 03:33:11;;;;;;;0.40;0.40;;;-8.00;99.90;;;;;;5074699;28;20968;-82
2022/12/18 03:35:42;;;;;;;0.40;0.40;;;-8.00;99.90;;;;;;5075171;28;20445;-82
2022/12/18 03:38:10;;;;;;;0.30;0.30;;;-8.00;99.90;;;;;;5075369;28;20448;-82
2022/12/18 03:40:45;;;;;;;0.30;0.30;;;-8.00;99.90;;;;;;5074941;28;20477;-82
2022/12/18 03:43:19;;;;;;;1.17;1.07;;;-8.00;99.90;;;;;;5075197;28;20465;-82
2022/12/18 03:45:54;;;;;;;0.30;0.30;;;-8.00;99.90;;;;;;5074887;28;20436;-82
2022/12/18 03:48:28;;;;;;;0.30;0.30;;;-8.10;99.90;;;;;;5075178;28;20433;-82
2022/12/18 03:51:00;;;;;;;0.53;0.53;;;-8.00;99.90;;;;;;5075112;28;20426;-82
2022/12/18 03:53:36;;;;;;;0.73;0.73;;;-7.90;99.90;;;;;;5075266;28;20462;-82
2022/12/18 03:56:05;;;;;;;0.30;0.30;;;-7.90;99.90;;;;;;5075029;28;20436;-82
2022/12/18 03:58:35;;;;;;;0.40;0.40;;;-7.90;99.90;;;;;;5074616;28;20949;-82
2022/12/18 04:01:06;;;;;;;0.30;0.30;;;-7.80;99.90;;;;;;5074795;28;20481;-82
2022/12/18 04:03:34;;;;;;;1.23;1.13;;;-7.90;99.90;;;;;;5074967;28;20469;-82
2022/12/18 04:06:02;;;;;;;0.50;0.50;;;-7.90;99.90;;;;;;5074442;28;20928;-82
2022/12/18 04:08:30;;;;;;;0.37;0.37;;;-7.90;99.90;;;;;;5074708;28;20821;-82
2022/12/18 04:10:57;;;;;;;0.40;0.40;;;-7.90;99.90;;;;;;5074657;28;20477;-82
2022/12/18 04:13:25;;;;;;;0.30;0.30;;;-7.90;99.90;;;;;;5074273;28;20473;-82
2022/12/18 04:15:53;;;;;;;0.30;0.30;;;-7.90;99.90;;;;;;5074599;28;20446;-82
2022/12/18 04:18:20;;;;;;;0.30;0.30;;;-7.90;99.90;;;;;;5074513;28;20449;-82
2022/12/18 04:20:46;;;;;;;0.80;0.80;;;-8.00;99.90;;;;;;5074337;28;20486;-82
2022/12/18 04:23:14;;;;;;;0.70;0.63;;;-8.00;99.90;;;;;;5074037;28;20489;-82
2022/12/18 04:25:41;;;;;;;0.40;0.40;;;-8.00;99.90;;;;;;5074041;28;20845;-82
2022/12/18 04:28:08;;;;;;;0.40;0.40;;;-8.00;99.90;;;;;;5074120;28;20925;-82
2022/12/18 04:30:34;;;;;;;1.60;1.23;;;-8.00;99.90;;;;;;5074685;28;20801;-82
2022/12/18 04:33:03;;;;;;;0.30;0.30;;;-8.00;99.90;;;;;;5073857;28;20972;-82
2022/12/18 04:35:29;;;;;;;0.30;0.30;;;-8.00;99.90;;;;;;5074419;28;20453;-82
2022/12/18 04:37:56;;;;;;;1.57;0.60;;;-8.00;99.90;;;;;;5074503;28;21020;-82
2022/12/18 04:40:23;;;;;;;0.30;0.30;;;-8.00;99.90;;;;;;5074008;28;20508;-82
2022/12/18 04:42:50;;;;;;;0.30;0.30;;;-7.90;99.90;;;;;;5074013;28;20461;-82
2022/12/18 04:45:17;;;;;;;0.30;0.30;;;-7.90;99.90;;;;;;5073630;28;20446;-82
2022/12/18 04:47:44;;;;;;;0.30;0.30;;;-7.90;99.90;;;;;;5074709;28;20477;-82
2022/12/18 04:50:12;;;;;;;0.60;0.60;;;-7.90;99.90;;;;;;5074200;28;20442;-82
2022/12/18 04:52:38;;;;;;;0.30;0.30;;;-7.90;99.90;;;;;;5073481;28;20460;-82
2022/12/18 04:55:06;;;;;;;0.30;0.30;;;-7.90;99.90;;;;;;5073561;28;20452;-82
2022/12/18 04:57:33;;;;;;;0.50;0.50;;;-7.90;99.90;;;;;;5073799;28;20456;-82
2022/12/18 04:59:59;;;;;;;0.70;0.70;;;-7.90;99.90;;;;;;5073653;28;20477;-82
2022/12/18 05:02:26;;;;;;;0.40;0.40;;;-7.90;99.90;;;;;;5073757;28;20793;-82
2022/12/18 05:04:53;;;;;;;2.70;1.90;;;-7.80;99.90;;;;;;5073383;28;20949;-82
2022/12/18 05:07:21;;;;;;;0.30;0.30;;;-7.80;99.90;;;;;;5073676;28;20456;-82
2022/12/18 05:09:48;;;;;;;0.33;0.33;;;-7.90;99.90;;;;;;5073378;28;20456;-82
2022/12/18 05:12:15;;;;;;;0.30;0.30;;;-8.00;99.90;;;;;;5073301;28;20933;-82
2022/12/18 05:14:41;;;;;;;0.63;0.63;;;-7.90;99.90;;;;;;5073210;28;20469;-82
2022/12/18 05:17:08;;;;;;;0.83;0.83;;;-7.90;99.90;;;;;;5073537;28;20457;-82
2022/12/18 05:19:35;;;;;;;2.00;1.90;;;-7.90;99.90;;;;;;5073297;28;20949;-82
2022/12/18 05:22:02;;;;;;;0.40;0.40;;;-7.90;99.90;;;;;;5073194;28;20457;-82
2022/12/18 05:24:30;;;;;;;0.30;0.30;;;-7.90;99.90;;;;;;5073143;28;20858;-82
2022/12/18 05:26:57;;;;;;;0.30;0.30;;;-7.90;99.90;;;;;;5073139;28;20449;-82
2022/12/18 05:29:24;;;;;;;0.30;0.30;;;-7.90;99.90;;;;;;5073384;28;20471;-83
2022/12/18 05:31:50;;;;;;;0.47;0.47;;;-7.90;99.90;;;;;;5073390;28;20442;-82
2022/12/18 05:34:17;;;;;;;0.37;0.37;;;-7.90;99.90;;;;;;5073269;28;20811;-82
2022/12/18 05:36:44;;;;;;;0.40;0.40;;;-7.90;99.90;;;;;;5073299;28;20941;-82
2022/12/18 05:39:11;;;;;;;0.40;0.40;;;-7.90;99.90;;;;;;5073432;28;20409;-82
2022/12/18 05:41:39;;;;;;;0.30;0.30;;;-7.80;99.90;;;;;;5073235;28;20492;-82
2022/12/18 05:44:06;;;;;;;0.67;0.67;;;-7.80;99.90;;;;;;5073234;28;20466;-82
2022/12/18 05:46:33;;;;;;;0.87;0.77;;;-7.80;99.90;;;;;;5073227;28;20445;-82
2022/12/18 05:49:01;;;;;;;0.50;0.50;;;-7.80;99.90;;;;;;5073234;28;20450;-82
2022/12/18 05:51:28;;;;;;;1.30;1.30;;;-7.80;99.90;;;;;;5073205;28;20470;-82
2022/12/18 05:53:55;;;;;;;0.30;0.30;;;-7.80;99.90;;;;;;5073141;28;20519;-82
2022/12/18 05:56:23;;;;;;;0.30;0.30;;;-7.80;99.90;;;;;;5074542;28;20442;-82
2022/12/18 05:58:55;;;;;;;0.30;0.30;;;-7.80;99.90;;;;;;5077182;28;20453;-82
2022/12/18 06:01:24;;;;;;;0.30;0.30;;;-7.80;99.90;;;;;;5077123;28;20477;-82
2022/12/18 06:03:51;;;;;;;0.40;0.40;;;-7.80;99.90;;;;;;5077302;28;20472;-82
2022/12/18 06:06:20;;;;;;;0.30;0.30;;;-7.80;99.90;;;;;;5077063;28;20456;-82
2022/12/18 06:08:47;;;;;;;0.60;0.60;;;-7.70;99.90;;;;;;5077084;28;20453;-82
2022/12/18 06:11:17;;;;;;;0.73;0.73;;;-7.70;99.90;;;;;;5076997;28;20441;-82
2022/12/18 06:13:44;;;;;;;0.30;0.30;;;-7.80;99.90;;;;;;5076876;28;20516;-82
2022/12/18 06:16:12;;;;;;;0.30;0.30;;;-7.80;99.90;;;;;;5076827;28;20955;-82
2022/12/18 06:18:39;;;;;;;0.40;0.40;;;-7.70;99.90;;;;;;5076629;28;20796;-82
2022/12/18 06:21:06;;;;;;;1.37;1.37;;;-7.70;99.90;;;;;;5076383;28;21007;-82
2022/12/18 06:23:33;;;;;;;0.30;0.30;;;-7.70;99.90;;;;;;5076308;28;20481;-82
2022/12/18 06:26:03;;;;;;;1.77;1.50;;;-7.60;99.90;;;;;;5076648;28;20449;-82
2022/12/18 06:28:30;;;;;;;1.03;1.03;;;-7.60;99.90;;;;;;5076594;28;20445;-82
2022/12/18 06:30:57;;;;;;;0.33;0.33;;;-7.60;99.90;;;;;;5076856;28;20448;-82
2022/12/18 06:33:27;;;;;;;0.30;0.30;;;-7.60;99.90;;;;;;5076483;28;20465;-82
2022/12/18 06:35:54;;;;;;;0.30;0.30;;;-7.60;99.90;;;;;;5076232;28;20913;-82
2022/12/18 06:38:21;;;;;;;2.30;0.70;;;-7.60;99.90;;;;;;5076461;28;20445;-82
2022/12/18 06:40:47;;;;;;;0.40;0.40;;;-7.60;99.90;;;;;;5076332;28;20483;-82
2022/12/18 06:43:14;;;;;;;0.30;0.30;;;-7.60;99.90;;;;;;5076269;28;20473;-82
2022/12/18 06:45:42;;;;;;;0.43;0.43;;;-7.60;99.90;;;;;;5076298;28;20444;-82
2022/12/18 06:48:08;;;;;;;1.13;0.90;;;-7.60;99.90;;;;;;5076244;28;20428;-81
2022/12/18 06:50:36;;;;;;;0.30;0.30;;;-7.70;99.90;;;;;;5076261;28;20441;-82
2022/12/18 06:53:03;;;;;;;0.30;0.30;;;-7.70;99.90;;;;;;5076100;28;20480;-82
2022/12/18 06:55:30;;;;;;;0.40;0.40;;;-7.70;99.90;;;;;;5076127;28;20453;-82
2022/12/18 06:57:57;;;;;;;0.30;0.30;;;-7.70;99.90;;;;;;5075812;28;20968;-82
2022/12/18 07:00:24;;;;;;;1.20;1.20;;;-7.70;99.90;;;;;;5075943;28;20535;-82
2022/12/18 07:02:51;;;;;;;0.30;0.20;;;-7.70;99.90;;;;;;5075971;28;20481;-82
2022/12/18 07:05:18;;;;;;;0.40;0.40;;;-7.70;99.90;;;;;;5075924;28;20453;-82
2022/12/18 07:07:46;;;;;;;0.70;0.70;;;-7.60;99.90;;;;;;5075452;28;20803;-82
2022/12/18 07:10:13;;;;;;;0.80;0.80;;;-7.60;99.90;;;;;;5076337;28;20445;-82
2022/12/18 07:12:39;;;;;;;0.53;0.53;;;-7.60;99.90;;;;;;5075807;28;20449;-82
2022/12/18 07:15:07;;;;;;;0.40;0.40;;;-7.50;99.90;;;;;;5075807;28;20453;-82
2022/12/18 07:17:34;;;;;;;0.30;0.30;;;-7.50;99.90;;;;;;5075517;28;20933;-82
2022/12/18 07:20:01;;;;;;;0.40;0.40;;;-7.40;99.90;;;;;;5075710;28;20453;-82
2022/12/18 07:22:28;;;;;;;0.37;0.37;;;-7.30;99.90;;;;;;5074898;28;21059;-82
2022/12/18 07:24:56;;;;;;;0.30;0.30;;;-7.30;99.90;;;;;;5075630;28;20445;-82
2022/12/18 07:27:23;;;;;;;0.30;0.30;;;-7.20;99.90;;;;;;5075233;28;20956;-82
2022/12/18 07:29:50;;;;;;;0.30;0.30;;;-7.20;99.90;;;;;;5075502;28;20456;-82
2022/12/18 07:32:17;;;;;;;0.30;0.30;;;-7.10;99.90;;;;;;5075456;28;20446;-82
2022/12/18 07:34:44;;;;;;;2.00;1.90;;;-7.10;99.90;;;;;;5075353;28;20473;-82
2022/12/18 07:37:11;;;;;;;5.30;2.60;;;-7.00;99.90;;;;;;5075367;28;20825;-81
2022/12/18 07:39:37;;;;;;;0.50;0.50;;;-6.90;99.90;;;;;;5075021;28;20461;-82
2022/12/18 07:44:50;;;;;;;0.30;0.30;;;-6.90;99.90;;;;;;5075295;28;20421;-82
2022/12/18 07:47:17;;;;;;;1.57;1.47;;;-6.90;99.90;;;;;;5074925;28;20436;-82
2022/12/18 07:49:43;;;;;;;0.97;0.97;;;-6.90;99.90;;;;;;5075125;28;20446;-82
2022/12/18 07:52:12;;;;;;;0.30;0.30;;;-6.90;99.90;;;;;;5075066;28;20453;-82
2022/12/18 07:54:38;;;;;;;1.53;1.53;;;-6.90;99.90;;;;;;5074957;28;20473;-82
2022/12/18 07:57:07;;;;;;;0.30;0.30;;;-6.90;99.90;;;;;;5075023;28;20450;-82
2022/12/18 07:59:34;;;;;;;0.30;0.30;;;-6.90;99.90;;;;;;5074935;28;20450;-80
2022/12/18 08:02:00;;;;;;;0.30;0.30;;;-6.80;99.90;;;;;;5074867;28;20480;-81
2022/12/18 08:04:27;;;;;;;0.40;0.40;;;-6.70;99.90;;;;;;5074510;28;21007;-82
2022/12/18 08:06:54;;;;;;;1.03;1.03;;;-6.70;99.90;;;;;;5074718;28;20921;-82
2022/12/18 08:09:21;;;;;;;0.30;0.30;;;-6.70;99.90;;;;;;5074425;28;20441;-82
2022/12/18 08:11:48;;;;;;;0.30;0.30;;;-6.60;99.90;;;;;;5074567;28;20412;-82
2022/12/18 08:14:16;;;;;;;0.70;0.70;;;-6.50;99.90;;;;;;5074621;28;20461;-81
2022/12/18 08:16:43;;;;;;;0.30;0.30;;;-6.50;99.90;;;;;;5074250;28;20948;-82
2022/12/18 08:19:09;;;;;;;2.00;1.90;;;-6.50;99.90;;;;;;5074553;28;20449;-81
2022/12/18 08:21:36;;;;;;;0.30;0.30;;;-6.40;99.90;;;;;;5074065;28;21041;-81
2022/12/18 08:24:03;;;;;;;0.30;0.30;;;-6.40;99.90;;;;;;5074273;28;20480;-81
2022/12/18 08:26:32;;;;;;;0.60;0.60;;;-6.30;99.90;;;;;;5074350;28;20449;-82
2022/12/18 08:29:00;;;;;;;0.40;0.40;;;-6.20;99.90;;;;;;5074296;28;20452;-81
2022/12/18 08:31:30;;;;;;;1.00;0.70;;;-6.30;99.90;;;;;;5074320;28;20445;-81
2022/12/18 08:33:57;;;;;;;0.67;0.67;;;-6.20;99.90;;;;;;5074496;28;20473;-81
2022/12/18 08:36:24;;;;;;;0.30;0.30;;;-6.20;99.90;;;;;;5074126;28;20933;-81
2022/12/18 08:38:51;;;;;;;0.40;0.40;;;-6.10;99.90;;;;;;5074163;28;20479;-81
2022/12/18 08:41:19;;;;;;;0.60;0.60;;;-6.10;99.90;;;;;;5074075;28;20488;-81
2022/12/18 08:46:36;;;;;;;1.27;0.97;;;-6.00;99.90;;;;;;5074059;28;20414;-81
2022/12/18 08:49:04;;;;;;;0.30;0.30;;;-5.90;99.90;;;;;;5073699;28;20438;-81
2022/12/18 08:51:30;;;;;;;0.40;0.40;;;-5.80;99.90;;;;;;5073890;28;20457;-81
2022/12/18 08:53:57;;;;;;;0.80;0.80;;;-5.70;99.90;;;;;;5073843;28;20837;-81
2022/12/18 08:56:24;;;;;;;0.50;0.50;;;-5.70;99.90;;;;;;5073845;28;20456;-81
2022/12/18 08:58:53;;;;;;;0.30;0.30;;;-5.60;99.90;;;;;;5073552;28;20437;-81
2022/12/18 09:01:20;;;;;;;0.63;0.63;;;-5.60;99.90;;;;;;5073686;28;20493;-82
2022/12/18 09:03:48;;;;;;;0.30;0.30;;;-5.50;99.90;;;;;;5073686;28;20473;-81
2022/12/18 09:06:16;;;;;;;0.30;0.27;;;-5.40;99.90;;;;;;5073701;28;20453;-81
2022/12/18 09:08:43;;;;;;;0.40;0.40;;;-5.40;99.90;;;;;;5073372;28;20933;-81
2022/12/18 09:11:14;;;;;;;1.63;0.90;;;-5.30;99.90;;;;;;5073643;28;20442;-81
2022/12/18 09:13:41;;;;;;;1.03;0.70;;;-5.20;99.90;;;;;;5073801;28;20444;-81
2022/12/18 09:16:08;;;;;;;0.40;0.40;;;-5.10;99.90;;;;;;5073604;28;20532;-81
2022/12/18 09:18:35;;;;;;;0.40;0.40;;;-5.00;99.90;;;;;;5073549;28;20450;-80
2022/12/18 09:21:10;;;;;;;0.30;0.30;;;-4.90;99.90;;;;;;5073411;28;20448;-80
2022/12/18 09:23:37;;;;;;;0.40;0.40;;;-4.70;99.90;;;;;;5073129;28;20489;-80
2022/12/18 09:26:04;;;;;;;1.03;0.93;;;-4.60;99.90;;;;;;5073694;28;20456;-81
2022/12/18 09:28:30;;;;;;;0.40;0.40;;;-4.50;99.90;;;;;;5073419;28;20428;-80
2022/12/18 09:30:57;;;;;;;0.40;0.40;;;-4.40;99.90;;;;;;5073168;28;20454;-81
2022/12/18 09:33:24;;;;;;;0.30;0.30;;;-4.40;99.90;;;;;;5073107;28;20465;-77
2022/12/18 09:35:51;;;;;;;0.60;0.60;;;-4.30;99.90;;;;;;5073308;28;20461;-78
2022/12/18 09:38:20;;;;;;;0.30;0.30;;;-4.30;99.90;;;;;;5073232;28;20449;-77
2022/12/18 09:40:51;;;;;;;0.40;0.40;;;-4.20;99.90;;;;;;5073265;28;20450;-78
2022/12/18 09:43:20;;;;;;;0.30;0.30;;;-4.10;99.90;;;;;;5073218;28;20470;-77
2022/12/18 09:45:51;;;;;;;0.30;0.30;;;-3.70;99.90;;;;;;5073372;28;20420;-77
2022/12/18 09:48:26;;;;;;;0.47;0.47;;;-2.70;99.90;;;;;;5073477;28;20404;-77
2022/12/18 09:50:56;;;;;;;0.30;0.30;;;-1.70;99.90;;;;;;5072936;28;20900;-76
2022/12/18 09:53:28;;;;;;;1.73;1.23;;;-0.70;99.90;;;;;;5073111;28;20472;-77
2022/12/18 09:55:57;;;;;;;1.43;1.33;;;0.40;99.90;;;;;;5073243;28;20434;-79
2022/12/18 09:58:31;;;;;;;0.77;0.70;;;1.60;99.90;;;;;;5073148;28;20447;-76
2022/12/18 10:00:58;;;;;;;0.30;0.30;;;2.60;99.90;;;;;;5073056;28;20437;-76
2022/12/18 10:03:26;;;;;;;0.30;0.30;;;3.00;99.90;;;;;;5073090;28;20473;-78
2022/12/18 10:06:02;;;;;;;0.40;0.40;;;3.50;99.90;;;;;;5073106;28;20452;-77
2022/12/18 10:08:40;;;;;;;0.67;0.67;;;3.90;99.90;;;;;;5073087;28;20776;-77
2022/12/18 10:11:25;;;;;;;0.80;0.80;;;3.80;99.90;;;;;;5073056;28;20440;-77
2022/12/18 10:13:56;;;;;;;2.37;1.17;;;3.40;99.90;;;;;;5072939;28;20469;-77
2022/12/18 10:16:31;;;;;;;0.30;0.30;;;2.30;99.90;;;;;;5072686;28;20905;-77
2022/12/18 10:19:16;;;;;;;1.43;0.80;;;1.60;99.90;;;;;;5073139;28;20438;-77
2022/12/18 10:21:51;;;;;;;0.40;0.40;;;1.00;99.90;;;;;;5072819;28;20469;-77
2022/12/18 10:24:30;;;;;;;1.33;0.83;;;0.50;99.90;;;;;;5072689;28;20479;-77
2022/12/18 10:27:08;;;;;;;1.47;0.97;;;0.00;99.90;;;;;;5072906;28;20429;-77
2022/12/18 10:29:35;;;;;;;0.40;0.40;;;-0.40;99.90;;;;;;5072580;28;20897;-77
2022/12/18 10:32:02;;;;;;;0.60;0.60;;;-0.60;99.90;;;;;;5072828;28;20442;-77
2022/12/18 10:34:28;;;;;;;0.30;0.30;;;-0.80;99.90;;;;;;5072496;28;20442;-77
2022/12/18 10:36:55;;;;;;;0.30;0.30;;;-0.90;99.90;;;;;;5072802;28;20452;-78
2022/12/18 10:39:26;;;;;;;2.70;1.50;;;-1.00;99.90;;;;;;5072785;28;20459;-77
2022/12/18 10:41:53;;;;;;;0.90;0.90;;;-1.10;99.90;;;;;;5072684;28;20465;-78
2022/12/18 10:44:23;;;;;;;0.70;0.70;;;-1.20;99.90;;;;;;5074398;28;20848;-77
2022/12/18 10:46:55;;;;;;;0.60;0.53;;;-1.40;99.90;;;;;;5076297;28;20477;-78
2022/12/18 10:49:28;;;;;;;0.77;0.73;;;-1.50;99.90;;;;;;5076528;28;20408;-78
2022/12/18 10:52:08;;;;;;;0.60;0.57;;;-1.60;99.90;;;;;;5076214;28;20396;-78
2022/12/18 10:54:37;;;;;;;0.30;0.30;;;-1.80;99.90;;;;;;5076138;28;20552;-78
2022/12/18 10:57:19;;;;;;;0.50;0.50;;;-1.90;99.90;;;;;;5076075;28;20540;-77
2022/12/18 10:59:54;;;;;;;0.30;0.30;;;-1.90;99.90;;;;;;5075645;28;20976;-77
2022/12/18 11:02:34;;;;;;;0.80;0.80;;;-1.90;99.90;;;;;;5075620;28;20976;-77
2022/12/18 11:05:02;;;;;;;0.30;0.30;;;-1.90;99.90;;;;;;5075997;28;20413;-78
2022/12/18 11:07:50;;;;;;;1.63;0.83;;;-1.90;99.90;;;;;;5075677;28;20420;-77
2022/12/18 11:10:20;;;;;;;0.30;0.30;;;-1.80;99.90;;;;;;5075554;28;20791;-77
2022/12/18 11:12:48;;;;;;;0.30;0.27;;;-1.80;99.90;;;;;;5075815;28;20506;-77
2022/12/18 11:15:19;;;;;;;0.40;0.40;;;-1.70;99.90;;;;;;5075626;28;20435;-76
2022/12/18 11:17:49;;;;;;;0.30;0.30;;;-1.80;99.90;;;;;;5075819;28;20381;-77
2022/12/18 11:20:24;;;;;;;1.13;1.07;;;-1.70;99.90;;;;;;5075702;28;20448;-77
2022/12/18 11:22:57;;;;;;;0.30;0.30;;;-1.70;99.90;;;;;;5075314;28;20542;-77
2022/12/18 11:25:27;;;;;;;0.30;0.30;;;-1.80;99.90;;;;;;5075287;28;20974;-77
2022/12/18 11:27:55;;;;;;;0.57;0.57;;;-1.80;99.90;;;;;;5075227;28;20507;-77
2022/12/18 11:30:26;;;;;;;0.30;0.30;;;-1.80;99.90;;;;;;5075460;28;20526;-77
2022/12/18 11:33:00;;;;;;;0.30;0.30;;;-1.70;99.90;;;;;;5075127;28;20470;-77
2022/12/18 11:35:39;;;;;;;0.40;0.40;;;-1.70;99.90;;;;;;5075124;28;20898;-78
2022/12/18 11:38:14;;;;;;;1.00;0.97;;;-1.70;99.90;;;;;;5075398;28;20761;-77
2022/12/18 11:40:46;;;;;;;0.30;0.30;;;-1.70;99.90;;;;;;5075156;28;20754;-78
2022/12/18 11:43:18;;;;;;;0.50;0.40;;;-1.70;99.90;;;;;;5074893;28;20485;-78
2022/12/18 11:45:51;;;;;;;0.30;0.30;;;-1.70;99.90;;;;;;5075252;28;20492;-77
2022/12/18 11:48:23;;;;;;;0.40;0.40;;;-1.70;99.90;;;;;;5074982;28;20466;-77
2022/12/18 11:50:52;;;;;;;0.30;0.30;;;-1.70;99.90;;;;;;5074953;28;20437;-77
2022/12/18 11:53:20;;;;;;;0.30;0.30;;;-1.70;99.90;;;;;;5075201;28;20876;-77
2022/12/18 11:56:03;;;;;;;0.30;0.30;;;-1.70;99.90;;;;;;5074364;28;20968;-77
2022/12/18 11:58:45;;;;;;;0.97;0.97;;;-1.60;99.90;;;;;;5075014;28;20408;-77
2022/12/18 12:01:24;;;;;;;0.60;0.60;;;-1.60;99.90;;;;;;5074274;28;20424;-77
2022/12/18 12:04:30;;;;;;;2.77;0.60;;;-1.60;99.90;;;;;;5074668;28;20588;-77
2022/12/18 12:07:06;;;;;;;0.40;0.40;;;-1.50;99.90;;;;;;5074850;28;20404;-77
2022/12/18 12:09:41;;;;;;;0.30;0.30;;;-1.60;99.90;;;;;;5074787;28;20438;-78
2022/12/18 12:12:26;;;;;;;3.47;3.00;;;-1.60;99.90;;;;;;5074739;28;20403;-78
2022/12/18 12:15:05;;;;;;;0.37;0.37;;;-1.70;99.90;;;;;;5074441;28;20385;-78
2022/12/18 12:17:38;;;;;;;0.30;0.30;;;-1.70;99.90;;;;;;5074649;28;20418;-77
2022/12/18 12:20:13;;;;;;;0.47;0.47;;;-1.70;99.90;;;;;;5074572;28;20446;-77
2022/12/18 12:22:50;;;;;;;0.40;0.40;;;-1.70;99.90;;;;;;5074164;28;20468;-77
2022/12/18 12:25:28;;;;;;;0.50;0.50;;;-1.70;99.90;;;;;;5074484;28;20442;-77
2022/12/18 12:28:15;;;;;;;0.30;0.30;;;-1.70;99.90;;;;;;5074445;28;20494;-77
2022/12/18 12:30:57;;;;;;;0.30;0.30;;;-1.60;99.90;;;;;;5074617;28;20415;-77
2022/12/18 12:33:37;;;;;;;0.30;0.30;;;-1.50;99.90;;;;;;5074220;28;20501;-77
2022/12/18 12:36:12;;;;;;;0.83;0.70;;;-1.50;99.90;;;;;;5074268;28;20434;-78
2022/12/18 12:38:45;;;;;;;2.30;1.73;;;-1.60;99.90;;;;;;5073879;28;20433;-77
2022/12/18 12:44:00;;;;;;;0.57;0.57;;;-1.50;99.90;;;;;;5073315;28;20580;-77
2022/12/18 12:46:28;;;;;;;0.30;0.30;;;-1.50;99.90;;;;;;5074048;28;20457;-77
2022/12/18 12:48:57;;;;;;;0.30;0.30;;;-1.50;99.90;;;;;;5073719;28;20427;-78
2022/12/18 12:51:27;;;;;;;0.50;0.50;;;-1.60;99.90;;;;;;5073578;28;20845;-77
2022/12/18 12:53:56;;;;;;;0.90;0.90;;;-1.60;99.90;;;;;;5073489;28;20490;-77
2022/12/18 12:56:24;;;;;;;1.03;0.70;;;-1.60;99.90;;;;;;5073507;28;20447;-77
2022/12/18 12:59:02;;;;;;;0.30;0.30;;;-1.60;99.90;;;;;;5073790;28;20416;-78
2022/12/18 13:01:38;;;;;;;0.30;0.30;;;-1.50;99.90;;;;;;5073824;28;20408;-77
2022/12/18 13:04:20;;;;;;;0.40;0.40;;;-1.50;99.90;;;;;;5073271;28;20923;-78
2022/12/18 13:06:55;;;;;;;0.30;0.30;;;-1.50;99.90;;;;;;5073353;28;20773;-78
2022/12/18 13:09:22;;;;;;;2.77;0.60;;;-1.50;99.90;;;;;;5073662;28;20790;-78
2022/12/18 13:14:37;;;;;;;0.57;0.40;;;-1.40;99.90;;;;;;5073374;28;20515;-77
2022/12/18 13:17:30;;;;;;;0.30;0.30;;;-1.40;99.90;;;;;;5073555;28;20499;-77